Terminal Aerodrome Forecast
Issued by NWS Binghamton, NY

Home | Current Version | Previous Version | Text Only | Print | Product List | Glossary On
Versions: 1 2 3 4 5 6 7 8 9 10 11 12 13 14 15 16 17 18 19 20 21 22 23 24
814
FTUS41 KBGM 180314 AAB
TAFBGM
TAF AMD
KBGM 180314Z 1803/1824 22007KT 3SM -SN SCT012 OVC025
      TEMPO 1803/1806 2SM -SN OVC012
     FM180800 29010KT P6SM OVC015
     FM181400 30010KT P6SM BKN035=

USA.gov is the U.S. government's official web portal to all federal, state and local government web resources and services.